sensor_id;sensor_type;location;lat;lon;timestamp;P1;durP1;ratioP1;P2;durP2;ratioP2
80421;SDS011;69763;50.182;9.144;2023-10-19T00:00:41;5.95;;;3.53;;
80421;SDS011;69763;50.182;9.144;2023-10-19T00:03:07;7.43;;;3.83;;
80421;SDS011;69763;50.182;9.144;2023-10-19T00:05:32;5.90;;;3.10;;
80421;SDS011;69763;50.182;9.144;2023-10-19T00:07:58;4.50;;;3.25;;
80421;SDS011;69763;50.182;9.144;2023-10-19T00:10:25;5.65;;;4.05;;
80421;SDS011;69763;50.182;9.144;2023-10-19T00:12:51;4.95;;;3.35;;
80421;SDS011;69763;50.182;9.144;2023-10-19T00:15:16;5.25;;;3.33;;
80421;SDS011;69763;50.182;9.144;2023-10-19T00:17:42;5.35;;;3.03;;
80421;SDS011;69763;50.182;9.144;2023-10-19T00:20:07;6.70;;;3.40;;
80421;SDS011;69763;50.182;9.144;2023-10-19T00:22:33;5.22;;;3.20;;
80421;SDS011;69763;50.182;9.144;2023-10-19T00:24:59;5.32;;;3.15;;
80421;SDS011;69763;50.182;9.144;2023-10-19T00:27:26;5.93;;;3.28;;
80421;SDS011;69763;50.182;9.144;2023-10-19T00:32:16;6.40;;;3.37;;
80421;SDS011;69763;50.182;9.144;2023-10-19T00:34:42;6.00;;;3.20;;
80421;SDS011;69763;50.182;9.144;2023-10-19T00:37:07;4.50;;;3.03;;
80421;SDS011;69763;50.182;9.144;2023-10-19T00:39:33;5.57;;;2.75;;
80421;SDS011;69763;50.182;9.144;2023-10-19T00:41:59;4.35;;;2.88;;
80421;SDS011;69763;50.182;9.144;2023-10-19T00:44:26;4.32;;;2.92;;
80421;SDS011;69763;50.182;9.144;2023-10-19T00:49:17;4.27;;;2.73;;
80421;SDS011;69763;50.182;9.144;2023-10-19T00:51:43;4.65;;;2.78;;
80421;SDS011;69763;50.182;9.144;2023-10-19T00:54:10;4.15;;;2.88;;
80421;SDS011;69763;50.182;9.144;2023-10-19T00:56:38;4.38;;;2.35;;
80421;SDS011;69763;50.182;9.144;2023-10-19T00:59:05;4.43;;;2.88;;
80421;SDS011;69763;50.182;9.144;2023-10-19T01:01:32;3.70;;;2.47;;
80421;SDS011;69763;50.182;9.144;2023-10-19T01:03:59;4.05;;;2.67;;
80421;SDS011;69763;50.182;9.144;2023-10-19T01:06:24;4.05;;;2.60;;
80421;SDS011;69763;50.182;9.144;2023-10-19T01:08:50;4.20;;;2.80;;
80421;SDS011;69763;50.182;9.144;2023-10-19T01:11:16;3.63;;;2.60;;
80421;SDS011;69763;50.182;9.144;2023-10-19T01:13:42;6.07;;;2.80;;
80421;SDS011;69763;50.182;9.144;2023-10-19T01:16:11;4.32;;;2.92;;
80421;SDS011;69763;50.182;9.144;2023-10-19T01:18:38;4.72;;;2.95;;
80421;SDS011;69763;50.182;9.144;2023-10-19T01:23:30;5.25;;;3.72;;
80421;SDS011;69763;50.182;9.144;2023-10-19T01:25:56;4.57;;;3.15;;
80421;SDS011;69763;50.182;9.144;2023-10-19T01:28:24;11.43;;;3.60;;
80421;SDS011;69763;50.182;9.144;2023-10-19T01:30:50;8.43;;;3.40;;
80421;SDS011;69763;50.182;9.144;2023-10-19T01:33:16;5.32;;;3.83;;
80421;SDS011;69763;50.182;9.144;2023-10-19T01:35:41;6.88;;;3.65;;
80421;SDS011;69763;50.182;9.144;2023-10-19T01:38:07;5.22;;;3.25;;
80421;SDS011;69763;50.182;9.144;2023-10-19T01:40:34;4.32;;;3.10;;
80421;SDS011;69763;50.182;9.144;2023-10-19T01:42:59;6.38;;;3.53;;
80421;SDS011;69763;50.182;9.144;2023-10-19T01:45:24;5.20;;;3.40;;
80421;SDS011;69763;50.182;9.144;2023-10-19T01:47:50;7.35;;;3.53;;
80421;SDS011;69763;50.182;9.144;2023-10-19T01:50:15;7.15;;;3.75;;
80421;SDS011;69763;50.182;9.144;2023-10-19T01:52:41;7.53;;;3.85;;
80421;SDS011;69763;50.182;9.144;2023-10-19T01:55:06;5.80;;;3.55;;
80421;SDS011;69763;50.182;9.144;2023-10-19T01:57:33;5.80;;;3.50;;
80421;SDS011;69763;50.182;9.144;2023-10-19T02:02:24;5.57;;;3.27;;
80421;SDS011;69763;50.182;9.144;2023-10-19T02:04:49;6.68;;;4.22;;
80421;SDS011;69763;50.182;9.144;2023-10-19T02:07:14;6.03;;;3.50;;
80421;SDS011;69763;50.182;9.144;2023-10-19T02:09:40;5.10;;;3.40;;
80421;SDS011;69763;50.182;9.144;2023-10-19T02:12:05;4.25;;;3.20;;
80421;SDS011;69763;50.182;9.144;2023-10-19T02:14:32;4.88;;;3.35;;
80421;SDS011;69763;50.182;9.144;2023-10-19T02:19:24;6.20;;;3.75;;
80421;SDS011;69763;50.182;9.144;2023-10-19T02:21:51;6.03;;;3.47;;
80421;SDS011;69763;50.182;9.144;2023-10-19T02:24:17;6.85;;;4.20;;
80421;SDS011;69763;50.182;9.144;2023-10-19T02:26:45;5.40;;;3.58;;
80421;SDS011;69763;50.182;9.144;2023-10-19T02:29:11;6.38;;;3.53;;
80421;SDS011;69763;50.182;9.144;2023-10-19T02:31:38;9.15;;;4.07;;
80421;SDS011;69763;50.182;9.144;2023-10-19T02:34:04;5.45;;;3.78;;
80421;SDS011;69763;50.182;9.144;2023-10-19T02:36:31;7.70;;;3.70;;
80421;SDS011;69763;50.182;9.144;2023-10-19T02:38:56;6.65;;;4.13;;
80421;SDS011;69763;50.182;9.144;2023-10-19T02:41:22;7.47;;;4.10;;
80421;SDS011;69763;50.182;9.144;2023-10-19T02:43:48;5.75;;;3.78;;
80421;SDS011;69763;50.182;9.144;2023-10-19T02:46:13;6.43;;;3.80;;
80421;SDS011;69763;50.182;9.144;2023-10-19T02:48:40;6.47;;;3.65;;
80421;SDS011;69763;50.182;9.144;2023-10-19T02:51:05;5.07;;;3.40;;
80421;SDS011;69763;50.182;9.144;2023-10-19T02:53:31;7.47;;;3.60;;
80421;SDS011;69763;50.182;9.144;2023-10-19T02:55:57;5.40;;;3.40;;
80421;SDS011;69763;50.182;9.144;2023-10-19T02:58:22;6.13;;;3.70;;
80421;SDS011;69763;50.182;9.144;2023-10-19T03:00:48;6.45;;;3.83;;
80421;SDS011;69763;50.182;9.144;2023-10-19T03:03:13;6.55;;;3.70;;
80421;SDS011;69763;50.182;9.144;2023-10-19T03:05:42;5.05;;;3.35;;
80421;SDS011;69763;50.182;9.144;2023-10-19T03:08:07;5.30;;;3.85;;
80421;SDS011;69763;50.182;9.144;2023-10-19T03:10:33;6.03;;;3.78;;
80421;SDS011;69763;50.182;9.144;2023-10-19T03:12:58;6.90;;;3.67;;
80421;SDS011;69763;50.182;9.144;2023-10-19T03:15:23;7.22;;;3.03;;
80421;SDS011;69763;50.182;9.144;2023-10-19T03:17:49;6.35;;;3.58;;
80421;SDS011;69763;50.182;9.144;2023-10-19T03:20:14;8.15;;;3.97;;
80421;SDS011;69763;50.182;9.144;2023-10-19T03:22:41;6.07;;;3.70;;
80421;SDS011;69763;50.182;9.144;2023-10-19T03:25:07;6.45;;;3.53;;
80421;SDS011;69763;50.182;9.144;2023-10-19T03:27:33;4.97;;;3.28;;
80421;SDS011;69763;50.182;9.144;2023-10-19T03:29:58;6.15;;;2.67;;
80421;SDS011;69763;50.182;9.144;2023-10-19T03:32:24;5.32;;;3.53;;
80421;SDS011;69763;50.182;9.144;2023-10-19T03:34:50;4.85;;;3.30;;
80421;SDS011;69763;50.182;9.144;2023-10-19T03:37:15;4.22;;;2.90;;
80421;SDS011;69763;50.182;9.144;2023-10-19T03:39:42;5.15;;;2.85;;
80421;SDS011;69763;50.182;9.144;2023-10-19T03:42:08;5.75;;;3.58;;
80421;SDS011;69763;50.182;9.144;2023-10-19T03:44:33;6.80;;;3.55;;
80421;SDS011;69763;50.182;9.144;2023-10-19T03:46:58;5.10;;;2.92;;
80421;SDS011;69763;50.182;9.144;2023-10-19T03:49:24;4.38;;;2.80;;
80421;SDS011;69763;50.182;9.144;2023-10-19T03:51:49;5.53;;;3.25;;
80421;SDS011;69763;50.182;9.144;2023-10-19T03:54:15;4.50;;;2.90;;
80421;SDS011;69763;50.182;9.144;2023-10-19T03:56:41;3.83;;;2.50;;
80421;SDS011;69763;50.182;9.144;2023-10-19T03:59:07;4.43;;;3.08;;
80421;SDS011;69763;50.182;9.144;2023-10-19T04:01:32;4.05;;;2.60;;
80421;SDS011;69763;50.182;9.144;2023-10-19T04:03:57;5.32;;;2.88;;
80421;SDS011;69763;50.182;9.144;2023-10-19T04:06:23;5.50;;;3.20;;
80421;SDS011;69763;50.182;9.144;2023-10-19T04:08:48;4.63;;;3.17;;
80421;SDS011;69763;50.182;9.144;2023-10-19T04:11:13;4.75;;;3.05;;
80421;SDS011;69763;50.182;9.144;2023-10-19T04:13:40;4.32;;;3.10;;
80421;SDS011;69763;50.182;9.144;2023-10-19T04:16:05;4.07;;;2.70;;
80421;SDS011;69763;50.182;9.144;2023-10-19T04:18:31;4.07;;;2.80;;
80421;SDS011;69763;50.182;9.144;2023-10-19T04:20:57;4.82;;;3.55;;
80421;SDS011;69763;50.182;9.144;2023-10-19T04:23:22;5.75;;;3.42;;
80421;SDS011;69763;50.182;9.144;2023-10-19T04:25:48;5.00;;;3.50;;
80421;SDS011;69763;50.182;9.144;2023-10-19T04:28:13;6.53;;;3.65;;
80421;SDS011;69763;50.182;9.144;2023-10-19T04:30:40;4.97;;;3.70;;
80421;SDS011;69763;50.182;9.144;2023-10-19T04:33:06;4.43;;;2.83;;
80421;SDS011;69763;50.182;9.144;2023-10-19T04:35:31;4.78;;;3.22;;
80421;SDS011;69763;50.182;9.144;2023-10-19T04:37:57;5.45;;;3.30;;
80421;SDS011;69763;50.182;9.144;2023-10-19T04:40:23;7.07;;;4.20;;
80421;SDS011;69763;50.182;9.144;2023-10-19T04:42:51;5.38;;;3.80;;
80421;SDS011;69763;50.182;9.144;2023-10-19T04:45:16;7.50;;;3.50;;
80421;SDS011;69763;50.182;9.144;2023-10-19T04:47:43;5.88;;;3.25;;
80421;SDS011;69763;50.182;9.144;2023-10-19T04:50:09;8.60;;;4.43;;
80421;SDS011;69763;50.182;9.144;2023-10-19T04:52:35;7.72;;;3.85;;
80421;SDS011;69763;50.182;9.144;2023-10-19T04:55:01;7.13;;;4.18;;
80421;SDS011;69763;50.182;9.144;2023-10-19T04:57:26;6.72;;;4.40;;
80421;SDS011;69763;50.182;9.144;2023-10-19T04:59:52;6.15;;;4.13;;
80421;SDS011;69763;50.182;9.144;2023-10-19T05:02:17;9.55;;;5.03;;
80421;SDS011;69763;50.182;9.144;2023-10-19T05:04:44;5.18;;;3.35;;
80421;SDS011;69763;50.182;9.144;2023-10-19T05:07:09;10.50;;;4.32;;
80421;SDS011;69763;50.182;9.144;2023-10-19T05:09:35;6.53;;;4.03;;
80421;SDS011;69763;50.182;9.144;2023-10-19T05:12:00;6.65;;;4.40;;
80421;SDS011;69763;50.182;9.144;2023-10-19T05:14:26;6.93;;;3.65;;
80421;SDS011;69763;50.182;9.144;2023-10-19T05:16:51;10.52;;;4.45;;
80421;SDS011;69763;50.182;9.144;2023-10-19T05:19:16;6.47;;;3.97;;
80421;SDS011;69763;50.182;9.144;2023-10-19T05:21:43;7.20;;;4.07;;
80421;SDS011;69763;50.182;9.144;2023-10-19T05:24:09;7.53;;;3.95;;
80421;SDS011;69763;50.182;9.144;2023-10-19T05:26:34;7.97;;;4.60;;
80421;SDS011;69763;50.182;9.144;2023-10-19T05:28:59;6.57;;;3.97;;
80421;SDS011;69763;50.182;9.144;2023-10-19T05:31:25;6.53;;;4.13;;
80421;SDS011;69763;50.182;9.144;2023-10-19T05:33:50;4.95;;;3.85;;
80421;SDS011;69763;50.182;9.144;2023-10-19T05:36:15;7.28;;;4.43;;
80421;SDS011;69763;50.182;9.144;2023-10-19T05:38:42;7.55;;;4.00;;
80421;SDS011;69763;50.182;9.144;2023-10-19T05:41:08;10.00;;;5.43;;
80421;SDS011;69763;50.182;9.144;2023-10-19T05:43:33;11.02;;;5.05;;
80421;SDS011;69763;50.182;9.144;2023-10-19T05:45:59;7.00;;;4.57;;
80421;SDS011;69763;50.182;9.144;2023-10-19T05:48:24;7.60;;;4.22;;
80421;SDS011;69763;50.182;9.144;2023-10-19T05:50:49;7.03;;;3.85;;
80421;SDS011;69763;50.182;9.144;2023-10-19T05:53:15;7.32;;;4.22;;
80421;SDS011;69763;50.182;9.144;2023-10-19T05:55:41;7.60;;;3.80;;
80421;SDS011;69763;50.182;9.144;2023-10-19T05:58:07;8.07;;;4.20;;
80421;SDS011;69763;50.182;9.144;2023-10-19T06:00:32;9.73;;;4.53;;
80421;SDS011;69763;50.182;9.144;2023-10-19T06:02:57;7.72;;;4.43;;
80421;SDS011;69763;50.182;9.144;2023-10-19T06:05:23;6.55;;;4.38;;
80421;SDS011;69763;50.182;9.144;2023-10-19T06:07:49;7.05;;;4.50;;
80421;SDS011;69763;50.182;9.144;2023-10-19T06:10:15;6.43;;;4.22;;
80421;SDS011;69763;50.182;9.144;2023-10-19T06:15:08;7.55;;;4.10;;
80421;SDS011;69763;50.182;9.144;2023-10-19T06:17:34;9.73;;;4.93;;
80421;SDS011;69763;50.182;9.144;2023-10-19T06:19:59;11.73;;;4.55;;
80421;SDS011;69763;50.182;9.144;2023-10-19T06:22:25;10.93;;;4.70;;
80421;SDS011;69763;50.182;9.144;2023-10-19T06:24:50;7.60;;;5.13;;
80421;SDS011;69763;50.182;9.144;2023-10-19T06:27:16;10.13;;;5.05;;
80421;SDS011;69763;50.182;9.144;2023-10-19T06:29:42;12.52;;;6.00;;
80421;SDS011;69763;50.182;9.144;2023-10-19T06:32:08;24.52;;;7.05;;
80421;SDS011;69763;50.182;9.144;2023-10-19T06:34:33;24.70;;;7.38;;
80421;SDS011;69763;50.182;9.144;2023-10-19T06:36:58;19.65;;;6.03;;
80421;SDS011;69763;50.182;9.144;2023-10-19T06:39:24;16.65;;;6.70;;
80421;SDS011;69763;50.182;9.144;2023-10-19T06:41:49;11.93;;;6.60;;
80421;SDS011;69763;50.182;9.144;2023-10-19T06:44:15;9.07;;;5.10;;
80421;SDS011;69763;50.182;9.144;2023-10-19T06:46:41;10.70;;;6.07;;
80421;SDS011;69763;50.182;9.144;2023-10-19T06:49:07;12.23;;;5.90;;
80421;SDS011;69763;50.182;9.144;2023-10-19T06:51:32;10.55;;;5.90;;
80421;SDS011;69763;50.182;9.144;2023-10-19T06:53:58;8.10;;;5.35;;
80421;SDS011;69763;50.182;9.144;2023-10-19T06:56:23;11.18;;;6.00;;
80421;SDS011;69763;50.182;9.144;2023-10-19T06:58:48;13.25;;;7.20;;
80421;SDS011;69763;50.182;9.144;2023-10-19T07:01:14;8.95;;;5.90;;
80421;SDS011;69763;50.182;9.144;2023-10-19T07:03:40;10.52;;;6.05;;
80421;SDS011;69763;50.182;9.144;2023-10-19T07:06:06;9.40;;;5.55;;
80421;SDS011;69763;50.182;9.144;2023-10-19T07:08:31;9.65;;;5.47;;
80421;SDS011;69763;50.182;9.144;2023-10-19T07:10:56;11.25;;;5.45;;
80421;SDS011;69763;50.182;9.144;2023-10-19T07:13:22;9.43;;;5.47;;
80421;SDS011;69763;50.182;9.144;2023-10-19T07:15:47;8.15;;;5.28;;
80421;SDS011;69763;50.182;9.144;2023-10-19T07:18:13;12.95;;;4.75;;
80421;SDS011;69763;50.182;9.144;2023-10-19T07:20:40;8.43;;;4.85;;
80421;SDS011;69763;50.182;9.144;2023-10-19T07:23:05;8.13;;;4.60;;
80421;SDS011;69763;50.182;9.144;2023-10-19T07:25:31;7.30;;;4.03;;
80421;SDS011;69763;50.182;9.144;2023-10-19T07:27:56;8.85;;;4.68;;
80421;SDS011;69763;50.182;9.144;2023-10-19T07:30:21;8.70;;;4.78;;
80421;SDS011;69763;50.182;9.144;2023-10-19T07:32:48;8.30;;;4.53;;
80421;SDS011;69763;50.182;9.144;2023-10-19T07:35:13;8.57;;;4.95;;
80421;SDS011;69763;50.182;9.144;2023-10-19T07:37:40;7.32;;;4.63;;
80421;SDS011;69763;50.182;9.144;2023-10-19T07:40:06;9.38;;;4.57;;
80421;SDS011;69763;50.182;9.144;2023-10-19T07:42:33;6.95;;;4.20;;
80421;SDS011;69763;50.182;9.144;2023-10-19T07:44:58;5.88;;;4.22;;
80421;SDS011;69763;50.182;9.144;2023-10-19T07:47:23;7.90;;;4.50;;
80421;SDS011;69763;50.182;9.144;2023-10-19T07:49:49;23.35;;;5.05;;
80421;SDS011;69763;50.182;9.144;2023-10-19T07:52:14;10.23;;;4.82;;
80421;SDS011;69763;50.182;9.144;2023-10-19T07:54:41;5.68;;;3.92;;
80421;SDS011;69763;50.182;9.144;2023-10-19T07:57:06;7.22;;;4.13;;
80421;SDS011;69763;50.182;9.144;2023-10-19T07:59:31;8.43;;;4.72;;
80421;SDS011;69763;50.182;9.144;2023-10-19T08:01:57;9.10;;;4.47;;
80421;SDS011;69763;50.182;9.144;2023-10-19T08:04:22;7.65;;;4.47;;
80421;SDS011;69763;50.182;9.144;2023-10-19T08:06:48;7.97;;;5.13;;
80421;SDS011;69763;50.182;9.144;2023-10-19T08:09:13;10.65;;;4.80;;
80421;SDS011;69763;50.182;9.144;2023-10-19T08:11:40;8.07;;;4.38;;
80421;SDS011;69763;50.182;9.144;2023-10-19T08:14:05;9.63;;;4.82;;
80421;SDS011;69763;50.182;9.144;2023-10-19T08:16:30;6.10;;;4.63;;
80421;SDS011;69763;50.182;9.144;2023-10-19T08:18:57;7.10;;;4.78;;
80421;SDS011;69763;50.182;9.144;2023-10-19T08:21:22;7.07;;;4.30;;
80421;SDS011;69763;50.182;9.144;2023-10-19T08:23:48;6.38;;;4.03;;
80421;SDS011;69763;50.182;9.144;2023-10-19T08:26:13;6.60;;;4.57;;
80421;SDS011;69763;50.182;9.144;2023-10-19T08:28:40;8.48;;;4.50;;
80421;SDS011;69763;50.182;9.144;2023-10-19T08:31:07;8.45;;;4.05;;
80421;SDS011;69763;50.182;9.144;2023-10-19T08:33:33;10.10;;;4.65;;
80421;SDS011;69763;50.182;9.144;2023-10-19T08:35:58;5.25;;;3.70;;
80421;SDS011;69763;50.182;9.144;2023-10-19T08:38:24;7.90;;;4.75;;
80421;SDS011;69763;50.182;9.144;2023-10-19T08:40:49;6.95;;;3.92;;
80421;SDS011;69763;50.182;9.144;2023-10-19T08:43:15;6.40;;;4.35;;
80421;SDS011;69763;50.182;9.144;2023-10-19T08:45:41;8.30;;;5.18;;
80421;SDS011;69763;50.182;9.144;2023-10-19T08:48:07;9.23;;;4.50;;
80421;SDS011;69763;50.182;9.144;2023-10-19T08:50:33;9.98;;;4.05;;
80421;SDS011;69763;50.182;9.144;2023-10-19T08:52:59;6.97;;;4.15;;
80421;SDS011;69763;50.182;9.144;2023-10-19T08:55:26;6.53;;;3.95;;
80421;SDS011;69763;50.182;9.144;2023-10-19T08:57:51;6.90;;;3.78;;
80421;SDS011;69763;50.182;9.144;2023-10-19T09:00:17;5.95;;;3.75;;
80421;SDS011;69763;50.182;9.144;2023-10-19T09:02:45;6.63;;;3.80;;
80421;SDS011;69763;50.182;9.144;2023-10-19T09:05:10;7.65;;;4.32;;
80421;SDS011;69763;50.182;9.144;2023-10-19T09:07:36;5.63;;;3.85;;
80421;SDS011;69763;50.182;9.144;2023-10-19T09:10:01;5.80;;;4.40;;
80421;SDS011;69763;50.182;9.144;2023-10-19T09:12:27;8.52;;;4.88;;
80421;SDS011;69763;50.182;9.144;2023-10-19T09:14:52;10.52;;;4.70;;
80421;SDS011;69763;50.182;9.144;2023-10-19T09:17:19;8.57;;;4.18;;
80421;SDS011;69763;50.182;9.144;2023-10-19T09:19:54;6.68;;;4.03;;
80421;SDS011;69763;50.182;9.144;2023-10-19T09:22:19;8.57;;;4.10;;
80421;SDS011;69763;50.182;9.144;2023-10-19T09:24:45;6.97;;;3.97;;
80421;SDS011;69763;50.182;9.144;2023-10-19T09:27:10;10.27;;;4.28;;
80421;SDS011;69763;50.182;9.144;2023-10-19T09:29:36;7.43;;;4.45;;
80421;SDS011;69763;50.182;9.144;2023-10-19T09:32:02;6.93;;;3.67;;
80421;SDS011;69763;50.182;9.144;2023-10-19T09:34:30;5.65;;;4.00;;
80421;SDS011;69763;50.182;9.144;2023-10-19T09:36:57;4.90;;;3.70;;
80421;SDS011;69763;50.182;9.144;2023-10-19T09:39:23;6.38;;;3.53;;
80421;SDS011;69763;50.182;9.144;2023-10-19T09:41:48;5.30;;;3.20;;
80421;SDS011;69763;50.182;9.144;2023-10-19T09:44:14;8.73;;;3.55;;
80421;SDS011;69763;50.182;9.144;2023-10-19T09:46:42;6.85;;;3.42;;
80421;SDS011;69763;50.182;9.144;2023-10-19T09:49:09;6.72;;;3.20;;
80421;SDS011;69763;50.182;9.144;2023-10-19T09:51:35;8.70;;;3.47;;
80421;SDS011;69763;50.182;9.144;2023-10-19T09:54:04;7.35;;;3.80;;
80421;SDS011;69763;50.182;9.144;2023-10-19T09:56:38;5.47;;;3.42;;
80421;SDS011;69763;50.182;9.144;2023-10-19T09:59:06;4.85;;;3.10;;
80421;SDS011;69763;50.182;9.144;2023-10-19T10:04:30;6.65;;;3.55;;
80421;SDS011;69763;50.182;9.144;2023-10-19T10:09:26;5.13;;;3.05;;
80421;SDS011;69763;50.182;9.144;2023-10-19T10:11:52;5.63;;;3.17;;
80421;SDS011;69763;50.182;9.144;2023-10-19T10:14:21;4.47;;;3.03;;
80421;SDS011;69763;50.182;9.144;2023-10-19T10:16:47;7.50;;;3.38;;
80421;SDS011;69763;50.182;9.144;2023-10-19T10:19:12;5.50;;;3.22;;
80421;SDS011;69763;50.182;9.144;2023-10-19T10:21:58;5.53;;;3.00;;
80421;SDS011;69763;50.182;9.144;2023-10-19T10:24:30;5.45;;;2.75;;
80421;SDS011;69763;50.182;9.144;2023-10-19T10:26:59;4.95;;;2.80;;
80421;SDS011;69763;50.182;9.144;2023-10-19T10:29:25;7.40;;;3.47;;
80421;SDS011;69763;50.182;9.144;2023-10-19T10:31:50;4.70;;;2.90;;
80421;SDS011;69763;50.182;9.144;2023-10-19T10:37:07;7.03;;;2.85;;
80421;SDS011;69763;50.182;9.144;2023-10-19T10:39:35;4.80;;;2.78;;
80421;SDS011;69763;50.182;9.144;2023-10-19T10:42:01;4.53;;;2.53;;
80421;SDS011;69763;50.182;9.144;2023-10-19T10:44:37;7.28;;;3.67;;
80421;SDS011;69763;50.182;9.144;2023-10-19T10:47:03;4.88;;;3.00;;
80421;SDS011;69763;50.182;9.144;2023-10-19T10:49:29;6.05;;;2.38;;
80421;SDS011;69763;50.182;9.144;2023-10-19T10:51:54;5.40;;;2.80;;
80421;SDS011;69763;50.182;9.144;2023-10-19T10:54:21;3.88;;;2.10;;
80421;SDS011;69763;50.182;9.144;2023-10-19T10:59:14;3.97;;;2.33;;
80421;SDS011;69763;50.182;9.144;2023-10-19T11:01:40;7.55;;;2.50;;
80421;SDS011;69763;50.182;9.144;2023-10-19T11:04:06;9.10;;;2.63;;
80421;SDS011;69763;50.182;9.144;2023-10-19T11:06:32;5.53;;;2.22;;
80421;SDS011;69763;50.182;9.144;2023-10-19T11:08:58;4.63;;;2.47;;
80421;SDS011;69763;50.182;9.144;2023-10-19T11:11:23;4.80;;;2.45;;
80421;SDS011;69763;50.182;9.144;2023-10-19T11:13:50;2.88;;;1.88;;
80421;SDS011;69763;50.182;9.144;2023-10-19T11:16:21;5.72;;;2.30;;
80421;SDS011;69763;50.182;9.144;2023-10-19T11:21:13;5.03;;;2.08;;
80421;SDS011;69763;50.182;9.144;2023-10-19T11:23:39;4.97;;;2.30;;
80421;SDS011;69763;50.182;9.144;2023-10-19T11:26:06;5.50;;;1.98;;
80421;SDS011;69763;50.182;9.144;2023-10-19T11:28:32;3.35;;;2.05;;
80421;SDS011;69763;50.182;9.144;2023-10-19T11:31:12;6.97;;;2.75;;
80421;SDS011;69763;50.182;9.144;2023-10-19T11:33:38;4.38;;;2.15;;
80421;SDS011;69763;50.182;9.144;2023-10-19T11:36:04;4.65;;;2.08;;
80421;SDS011;69763;50.182;9.144;2023-10-19T11:38:30;3.47;;;2.10;;
80421;SDS011;69763;50.182;9.144;2023-10-19T11:40:55;5.53;;;2.13;;
80421;SDS011;69763;50.182;9.144;2023-10-19T11:43:21;5.57;;;2.40;;
80421;SDS011;69763;50.182;9.144;2023-10-19T11:45:46;5.40;;;2.35;;
80421;SDS011;69763;50.182;9.144;2023-10-19T11:48:13;6.25;;;2.03;;
80421;SDS011;69763;50.182;9.144;2023-10-19T11:50:38;6.63;;;2.60;;
80421;SDS011;69763;50.182;9.144;2023-10-19T11:53:04;7.45;;;1.95;;
80421;SDS011;69763;50.182;9.144;2023-10-19T11:55:29;6.20;;;2.05;;
80421;SDS011;69763;50.182;9.144;2023-10-19T11:57:54;4.45;;;2.17;;
80421;SDS011;69763;50.182;9.144;2023-10-19T12:00:20;5.20;;;2.10;;
80421;SDS011;69763;50.182;9.144;2023-10-19T12:02:45;5.95;;;2.28;;
80421;SDS011;69763;50.182;9.144;2023-10-19T12:05:12;3.20;;;2.28;;
80421;SDS011;69763;50.182;9.144;2023-10-19T12:07:37;5.97;;;2.50;;
80421;SDS011;69763;50.182;9.144;2023-10-19T12:10:03;4.85;;;2.47;;
80421;SDS011;69763;50.182;9.144;2023-10-19T12:12:29;5.07;;;2.30;;
80421;SDS011;69763;50.182;9.144;2023-10-19T12:14:55;4.82;;;2.40;;
80421;SDS011;69763;50.182;9.144;2023-10-19T12:17:20;4.45;;;2.15;;
80421;SDS011;69763;50.182;9.144;2023-10-19T12:19:46;7.90;;;2.25;;
80421;SDS011;69763;50.182;9.144;2023-10-19T12:22:12;6.57;;;2.65;;
80421;SDS011;69763;50.182;9.144;2023-10-19T12:24:38;8.73;;;2.42;;
80421;SDS011;69763;50.182;9.144;2023-10-19T12:27:03;4.57;;;2.40;;
80421;SDS011;69763;50.182;9.144;2023-10-19T12:29:29;5.85;;;2.40;;
80421;SDS011;69763;50.182;9.144;2023-10-19T12:31:54;5.15;;;2.45;;
80421;SDS011;69763;50.182;9.144;2023-10-19T12:34:19;5.80;;;2.47;;
80421;SDS011;69763;50.182;9.144;2023-10-19T12:36:45;3.92;;;2.13;;
80421;SDS011;69763;50.182;9.144;2023-10-19T12:39:11;7.35;;;2.70;;
80421;SDS011;69763;50.182;9.144;2023-10-19T12:41:37;4.63;;;2.60;;
80421;SDS011;69763;50.182;9.144;2023-10-19T12:44:02;9.70;;;2.67;;
80421;SDS011;69763;50.182;9.144;2023-10-19T12:46:28;3.90;;;2.58;;
80421;SDS011;69763;50.182;9.144;2023-10-19T12:48:53;7.38;;;2.45;;
80421;SDS011;69763;50.182;9.144;2023-10-19T12:51:19;7.20;;;2.30;;
80421;SDS011;69763;50.182;9.144;2023-10-19T12:53:44;3.30;;;2.00;;
80421;SDS011;69763;50.182;9.144;2023-10-19T12:56:11;3.83;;;2.28;;
80421;SDS011;69763;50.182;9.144;2023-10-19T12:58:37;7.82;;;2.50;;
80421;SDS011;69763;50.182;9.144;2023-10-19T13:01:02;5.38;;;2.42;;
80421;SDS011;69763;50.182;9.144;2023-10-19T13:03:27;5.22;;;3.40;;
80421;SDS011;69763;50.182;9.144;2023-10-19T13:05:53;4.20;;;2.40;;
80421;SDS011;69763;50.182;9.144;2023-10-19T13:08:18;6.82;;;2.60;;
80421;SDS011;69763;50.182;9.144;2023-10-19T13:10:45;6.18;;;3.00;;
80421;SDS011;69763;50.182;9.144;2023-10-19T13:13:14;7.10;;;2.63;;
80421;SDS011;69763;50.182;9.144;2023-10-19T13:15:40;7.28;;;2.50;;
80421;SDS011;69763;50.182;9.144;2023-10-19T13:18:07;4.85;;;2.58;;
80421;SDS011;69763;50.182;9.144;2023-10-19T13:20:33;4.25;;;2.33;;
80421;SDS011;69763;50.182;9.144;2023-10-19T13:22:59;4.97;;;2.40;;
80421;SDS011;69763;50.182;9.144;2023-10-19T13:25:25;8.07;;;4.00;;
80421;SDS011;69763;50.182;9.144;2023-10-19T13:27:51;3.88;;;2.58;;
80421;SDS011;69763;50.182;9.144;2023-10-19T13:30:17;6.00;;;2.40;;
80421;SDS011;69763;50.182;9.144;2023-10-19T13:32:43;9.18;;;2.78;;
80421;SDS011;69763;50.182;9.144;2023-10-19T13:35:08;2.65;;;1.85;;
80421;SDS011;69763;50.182;9.144;2023-10-19T13:37:33;7.25;;;4.03;;
80421;SDS011;69763;50.182;9.144;2023-10-19T13:39:59;11.10;;;4.47;;
80421;SDS011;69763;50.182;9.144;2023-10-19T13:42:24;10.13;;;3.53;;
80421;SDS011;69763;50.182;9.144;2023-10-19T13:44:50;5.35;;;3.25;;
80421;SDS011;69763;50.182;9.144;2023-10-19T13:47:16;5.30;;;3.03;;
80421;SDS011;69763;50.182;9.144;2023-10-19T13:49:42;7.40;;;3.55;;
80421;SDS011;69763;50.182;9.144;2023-10-19T13:52:07;6.57;;;3.50;;
80421;SDS011;69763;50.182;9.144;2023-10-19T13:54:32;7.70;;;3.30;;
80421;SDS011;69763;50.182;9.144;2023-10-19T13:56:58;7.25;;;3.60;;
80421;SDS011;69763;50.182;9.144;2023-10-19T13:59:23;5.40;;;3.50;;
80421;SDS011;69763;50.182;9.144;2023-10-19T14:01:49;7.40;;;3.38;;
80421;SDS011;69763;50.182;9.144;2023-10-19T14:04:15;8.10;;;3.92;;
80421;SDS011;69763;50.182;9.144;2023-10-19T14:06:41;4.80;;;3.22;;
80421;SDS011;69763;50.182;9.144;2023-10-19T14:09:06;5.50;;;3.42;;
80421;SDS011;69763;50.182;9.144;2023-10-19T14:11:32;5.13;;;3.40;;
80421;SDS011;69763;50.182;9.144;2023-10-19T14:13:57;4.57;;;3.28;;
80421;SDS011;69763;50.182;9.144;2023-10-19T14:16:23;6.63;;;3.70;;
80421;SDS011;69763;50.182;9.144;2023-10-19T14:18:48;4.97;;;3.35;;
80421;SDS011;69763;50.182;9.144;2023-10-19T14:21:15;7.05;;;3.65;;
80421;SDS011;69763;50.182;9.144;2023-10-19T14:23:42;6.82;;;3.97;;
80421;SDS011;69763;50.182;9.144;2023-10-19T14:26:08;7.13;;;4.00;;
80421;SDS011;69763;50.182;9.144;2023-10-19T14:28:34;10.85;;;3.88;;
80421;SDS011;69763;50.182;9.144;2023-10-19T14:30:59;5.13;;;3.00;;
80421;SDS011;69763;50.182;9.144;2023-10-19T14:33:25;7.35;;;3.97;;
80421;SDS011;69763;50.182;9.144;2023-10-19T14:35:50;7.85;;;3.80;;
80421;SDS011;69763;50.182;9.144;2023-10-19T14:38:17;6.57;;;3.75;;
80421;SDS011;69763;50.182;9.144;2023-10-19T14:40:42;6.32;;;3.80;;
80421;SDS011;69763;50.182;9.144;2023-10-19T14:43:07;8.98;;;4.10;;
80421;SDS011;69763;50.182;9.144;2023-10-19T14:45:33;7.22;;;4.00;;
80421;SDS011;69763;50.182;9.144;2023-10-19T14:47:58;5.90;;;3.50;;
80421;SDS011;69763;50.182;9.144;2023-10-19T14:50:24;9.18;;;4.32;;
80421;SDS011;69763;50.182;9.144;2023-10-19T14:52:50;7.03;;;4.30;;
80421;SDS011;69763;50.182;9.144;2023-10-19T14:55:19;6.30;;;3.90;;
80421;SDS011;69763;50.182;9.144;2023-10-19T14:57:46;12.65;;;4.32;;
80421;SDS011;69763;50.182;9.144;2023-10-19T15:00:13;6.15;;;4.25;;
80421;SDS011;69763;50.182;9.144;2023-10-19T15:02:39;9.60;;;4.85;;
80421;SDS011;69763;50.182;9.144;2023-10-19T15:05:05;5.85;;;4.07;;